sensor_id;sensor_type;location;lat;lon;timestamp;pressure;altitude;pressure_sealevel;temperature;humidity
3102;BME280;1561;42.666;23.392;2023-06-22T00:00:17;95604.59;;;19.34;100.00
3102;BME280;1561;42.666;23.392;2023-06-22T00:02:47;95625.41;;;19.65;100.00
3102;BME280;1561;42.666;23.392;2023-06-22T00:05:14;95620.28;;;19.49;100.00
3102;BME280;1561;42.666;23.392;2023-06-22T00:07:40;95620.19;;;19.26;100.00
3102;BME280;1561;42.666;23.392;2023-06-22T00:10:08;95621.78;;;19.35;100.00
3102;BME280;1561;42.666;23.392;2023-06-22T00:12:37;95624.72;;;19.24;100.00
3102;BME280;1561;42.666;23.392;2023-06-22T00:15:08;95617.13;;;19.15;100.00
3102;BME280;1561;42.666;23.392;2023-06-22T00:17:35;95617.78;;;19.01;100.00
3102;BME280;1561;42.666;23.392;2023-06-22T00:20:03;95614.09;;;18.95;100.00
3102;BME280;1561;42.666;23.392;2023-06-22T00:22:32;95621.50;;;18.98;100.00
3102;BME280;1561;42.666;23.392;2023-06-22T00:25:05;95612.16;;;18.81;100.00
3102;BME280;1561;42.666;23.392;2023-06-22T00:27:32;95603.91;;;18.70;100.00
3102;BME280;1561;42.666;23.392;2023-06-22T00:30:01;95598.25;;;18.74;100.00
3102;BME280;1561;42.666;23.392;2023-06-22T00:32:28;95593.25;;;18.81;100.00
3102;BME280;1561;42.666;23.392;2023-06-22T00:34:55;95598.09;;;18.68;100.00
3102;BME280;1561;42.666;23.392;2023-06-22T00:37:21;95602.00;;;18.72;100.00
3102;BME280;1561;42.666;23.392;2023-06-22T00:39:50;95596.50;;;18.67;100.00
3102;BME280;1561;42.666;23.392;2023-06-22T00:42:18;95595.53;;;18.68;100.00
3102;BME280;1561;42.666;23.392;2023-06-22T00:44:45;95586.28;;;18.73;100.00
3102;BME280;1561;42.666;23.392;2023-06-22T00:47:21;95594.22;;;18.80;100.00
3102;BME280;1561;42.666;23.392;2023-06-22T00:49:49;95601.00;;;18.65;100.00
3102;BME280;1561;42.666;23.392;2023-06-22T00:52:19;95599.25;;;18.57;100.00
3102;BME280;1561;42.666;23.392;2023-06-22T00:54:47;95600.84;;;18.74;100.00
3102;BME280;1561;42.666;23.392;2023-06-22T00:57:16;95588.72;;;18.59;100.00
3102;BME280;1561;42.666;23.392;2023-06-22T00:59:47;95598.94;;;18.60;100.00
3102;BME280;1561;42.666;23.392;2023-06-22T01:02:14;95589.69;;;18.66;100.00
3102;BME280;1561;42.666;23.392;2023-06-22T01:04:43;95590.34;;;18.44;100.00
3102;BME280;1561;42.666;23.392;2023-06-22T01:07:25;95591.66;;;18.40;100.00
3102;BME280;1561;42.666;23.392;2023-06-22T01:10:07;95604.56;;;18.56;100.00
3102;BME280;1561;42.666;23.392;2023-06-22T01:12:40;95605.88;;;18.60;100.00
3102;BME280;1561;42.666;23.392;2023-06-22T01:15:15;95597.47;;;18.50;100.00
3102;BME280;1561;42.666;23.392;2023-06-22T01:17:45;95603.28;;;18.52;100.00
3102;BME280;1561;42.666;23.392;2023-06-22T01:20:25;95610.41;;;18.58;100.00
3102;BME280;1561;42.666;23.392;2023-06-22T01:23:05;95600.22;;;18.56;100.00
3102;BME280;1561;42.666;23.392;2023-06-22T01:25:42;95603.28;;;18.44;100.00
3102;BME280;1561;42.666;23.392;2023-06-22T01:31:33;95616.22;;;18.44;100.00
3102;BME280;1561;42.666;23.392;2023-06-22T01:34:02;95614.13;;;18.39;100.00
3102;BME280;1561;42.666;23.392;2023-06-22T01:36:31;95612.53;;;18.46;100.00
3102;BME280;1561;42.666;23.392;2023-06-22T01:39:02;95615.91;;;18.55;100.00
3102;BME280;1561;42.666;23.392;2023-06-22T01:41:37;95613.63;;;18.44;100.00
3102;BME280;1561;42.666;23.392;2023-06-22T01:44:05;95619.75;;;18.35;100.00
3102;BME280;1561;42.666;23.392;2023-06-22T01:46:35;95618.00;;;18.35;100.00
3102;BME280;1561;42.666;23.392;2023-06-22T01:49:03;95594.34;;;18.22;100.00
3102;BME280;1561;42.666;23.392;2023-06-22T01:51:33;95621.56;;;18.34;100.00
3102;BME280;1561;42.666;23.392;2023-06-22T01:54:06;95618.81;;;18.36;100.00
3102;BME280;1561;42.666;23.392;2023-06-22T01:56:33;95552.47;;;17.95;100.00
3102;BME280;1561;42.666;23.392;2023-06-22T01:59:31;95629.09;;;18.20;100.00
3102;BME280;1561;42.666;23.392;2023-06-22T02:02:03;95614.53;;;18.03;100.00
3102;BME280;1561;42.666;23.392;2023-06-22T02:04:54;95636.50;;;18.07;100.00
3102;BME280;1561;42.666;23.392;2023-06-22T02:07:23;95619.53;;;17.96;100.00
3102;BME280;1561;42.666;23.392;2023-06-22T02:09:56;95638.47;;;18.21;100.00
3102;BME280;1561;42.666;23.392;2023-06-22T02:12:25;95634.91;;;18.22;100.00
3102;BME280;1561;42.666;23.392;2023-06-22T02:14:54;95643.13;;;18.01;100.00
3102;BME280;1561;42.666;23.392;2023-06-22T02:17:27;95638.31;;;18.14;100.00
3102;BME280;1561;42.666;23.392;2023-06-22T02:19:55;95631.16;;;18.00;100.00
3102;BME280;1561;42.666;23.392;2023-06-22T02:22:23;95624.25;;;18.09;100.00
3102;BME280;1561;42.666;23.392;2023-06-22T02:24:52;95631.53;;;18.13;100.00
3102;BME280;1561;42.666;23.392;2023-06-22T02:27:22;95630.25;;;18.17;100.00
3102;BME280;1561;42.666;23.392;2023-06-22T02:29:50;95625.44;;;18.38;100.00
3102;BME280;1561;42.666;23.392;2023-06-22T02:32:17;95616.50;;;18.33;100.00
3102;BME280;1561;42.666;23.392;2023-06-22T02:34:45;95620.34;;;18.13;100.00
3102;BME280;1561;42.666;23.392;2023-06-22T02:37:14;95625.22;;;18.16;100.00
3102;BME280;1561;42.666;23.392;2023-06-22T02:39:42;95622.50;;;18.25;100.00
3102;BME280;1561;42.666;23.392;2023-06-22T02:42:09;95625.38;;;18.22;100.00
3102;BME280;1561;42.666;23.392;2023-06-22T02:44:37;95536.09;;;17.62;100.00
3102;BME280;1561;42.666;23.392;2023-06-22T02:47:04;95625.53;;;18.13;100.00
3102;BME280;1561;42.666;23.392;2023-06-22T02:49:31;95616.97;;;18.12;100.00
3102;BME280;1561;42.666;23.392;2023-06-22T02:52:01;95629.75;;;18.14;100.00
3102;BME280;1561;42.666;23.392;2023-06-22T02:54:28;95639.44;;;18.20;100.00
3102;BME280;1561;42.666;23.392;2023-06-22T02:56:56;95632.97;;;18.16;100.00
3102;BME280;1561;42.666;23.392;2023-06-22T02:59:28;95642.66;;;18.06;100.00
3102;BME280;1561;42.666;23.392;2023-06-22T03:01:57;95642.03;;;18.12;100.00
3102;BME280;1561;42.666;23.392;2023-06-22T03:04:24;95637.03;;;18.18;100.00
3102;BME280;1561;42.666;23.392;2023-06-22T03:06:51;95648.66;;;18.14;100.00
3102;BME280;1561;42.666;23.392;2023-06-22T03:09:20;95642.00;;;17.96;100.00
3102;BME280;1561;42.666;23.392;2023-06-22T03:11:46;95638.63;;;18.19;100.00
3102;BME280;1561;42.666;23.392;2023-06-22T03:14:13;95636.75;;;18.37;100.00
3102;BME280;1561;42.666;23.392;2023-06-22T03:16:40;95638.00;;;18.25;100.00
3102;BME280;1561;42.666;23.392;2023-06-22T03:19:07;95650.81;;;18.35;100.00
3102;BME280;1561;42.666;23.392;2023-06-22T03:21:34;95645.25;;;18.22;100.00
3102;BME280;1561;42.666;23.392;2023-06-22T03:24:04;95661.63;;;18.30;100.00
3102;BME280;1561;42.666;23.392;2023-06-22T03:26:34;95663.94;;;18.73;100.00
3102;BME280;1561;42.666;23.392;2023-06-22T03:29:01;95663.56;;;19.32;100.00
3102;BME280;1561;42.666;23.392;2023-06-22T03:31:28;95659.97;;;19.49;100.00
3102;BME280;1561;42.666;23.392;2023-06-22T03:33:55;95664.53;;;19.15;100.00
3102;BME280;1561;42.666;23.392;2023-06-22T03:36:22;95651.28;;;18.94;100.00
3102;BME280;1561;42.666;23.392;2023-06-22T03:38:51;95662.63;;;19.09;100.00
3102;BME280;1561;42.666;23.392;2023-06-22T03:41:18;95668.06;;;19.38;100.00
3102;BME280;1561;42.666;23.392;2023-06-22T03:43:48;95669.25;;;20.21;100.00
3102;BME280;1561;42.666;23.392;2023-06-22T03:46:15;95661.31;;;20.67;100.00
3102;BME280;1561;42.666;23.392;2023-06-22T03:48:44;95672.19;;;21.22;100.00
3102;BME280;1561;42.666;23.392;2023-06-22T03:51:12;95678.50;;;21.28;100.00
3102;BME280;1561;42.666;23.392;2023-06-22T03:53:40;95676.38;;;20.94;100.00
3102;BME280;1561;42.666;23.392;2023-06-22T03:56:07;95678.19;;;21.08;100.00
3102;BME280;1561;42.666;23.392;2023-06-22T03:58:34;95684.44;;;20.54;100.00
3102;BME280;1561;42.666;23.392;2023-06-22T04:01:03;95685.97;;;21.08;100.00
3102;BME280;1561;42.666;23.392;2023-06-22T04:03:36;95677.06;;;21.69;100.00
3102;BME280;1561;42.666;23.392;2023-06-22T04:06:04;95669.88;;;22.00;100.00
3102;BME280;1561;42.666;23.392;2023-06-22T04:08:33;95672.81;;;22.11;100.00
3102;BME280;1561;42.666;23.392;2023-06-22T04:11:00;95602.53;;;20.52;100.00
3102;BME280;1561;42.666;23.392;2023-06-22T04:13:28;95684.44;;;20.99;100.00
3102;BME280;1561;42.666;23.392;2023-06-22T04:15:55;95681.50;;;21.17;100.00
3102;BME280;1561;42.666;23.392;2023-06-22T04:18:25;95675.81;;;21.36;100.00
3102;BME280;1561;42.666;23.392;2023-06-22T04:20:52;95670.88;;;22.34;100.00
3102;BME280;1561;42.666;23.392;2023-06-22T04:23:20;95585.91;;;21.27;100.00
3102;BME280;1561;42.666;23.392;2023-06-22T04:25:50;95667.66;;;22.32;100.00
3102;BME280;1561;42.666;23.392;2023-06-22T04:28:18;95661.03;;;23.14;100.00
3102;BME280;1561;42.666;23.392;2023-06-22T04:30:45;95651.31;;;23.01;100.00
3102;BME280;1561;42.666;23.392;2023-06-22T04:33:13;95654.56;;;23.31;100.00
3102;BME280;1561;42.666;23.392;2023-06-22T04:35:44;95652.69;;;23.25;100.00
3102;BME280;1561;42.666;23.392;2023-06-22T04:38:12;95645.84;;;23.86;100.00
3102;BME280;1561;42.666;23.392;2023-06-22T04:40:40;95645.22;;;23.84;100.00
3102;BME280;1561;42.666;23.392;2023-06-22T04:43:07;95643.41;;;23.44;100.00
3102;BME280;1561;42.666;23.392;2023-06-22T04:45:43;95638.19;;;23.84;100.00
3102;BME280;1561;42.666;23.392;2023-06-22T04:48:10;95644.53;;;24.89;100.00
3102;BME280;1561;42.666;23.392;2023-06-22T04:50:45;95642.22;;;24.27;100.00
3102;BME280;1561;42.666;23.392;2023-06-22T04:53:12;95644.34;;;25.10;100.00
3102;BME280;1561;42.666;23.392;2023-06-22T04:55:39;95659.53;;;24.48;100.00
3102;BME280;1561;42.666;23.392;2023-06-22T04:58:12;95655.69;;;26.37;100.00
3102;BME280;1561;42.666;23.392;2023-06-22T05:00:39;95667.13;;;26.12;100.00
3102;BME280;1561;42.666;23.392;2023-06-22T05:03:06;95668.88;;;25.48;100.00
3102;BME280;1561;42.666;23.392;2023-06-22T05:05:36;95665.31;;;26.43;100.00
3102;BME280;1561;42.666;23.392;2023-06-22T05:08:05;95652.72;;;26.27;100.00
3102;BME280;1561;42.666;23.392;2023-06-22T05:10:32;95670.28;;;24.79;100.00
3102;BME280;1561;42.666;23.392;2023-06-22T05:12:59;95668.72;;;24.24;100.00
3102;BME280;1561;42.666;23.392;2023-06-22T05:15:26;95658.19;;;24.84;100.00
3102;BME280;1561;42.666;23.392;2023-06-22T05:17:58;95664.84;;;25.13;100.00
3102;BME280;1561;42.666;23.392;2023-06-22T05:20:30;95645.34;;;25.28;100.00
3102;BME280;1561;42.666;23.392;2023-06-22T05:22:59;95659.50;;;25.91;100.00
3102;BME280;1561;42.666;23.392;2023-06-22T05:25:27;95656.78;;;25.01;100.00
3102;BME280;1561;42.666;23.392;2023-06-22T05:27:55;95679.72;;;24.73;100.00
3102;BME280;1561;42.666;23.392;2023-06-22T05:30:22;95669.38;;;25.89;100.00
3102;BME280;1561;42.666;23.392;2023-06-22T05:32:49;95667.50;;;26.53;100.00
3102;BME280;1561;42.666;23.392;2023-06-22T05:35:16;95675.28;;;25.06;100.00
3102;BME280;1561;42.666;23.392;2023-06-22T05:37:44;95684.56;;;25.35;100.00
3102;BME280;1561;42.666;23.392;2023-06-22T05:40:12;95692.16;;;25.75;100.00
3102;BME280;1561;42.666;23.392;2023-06-22T05:42:41;95684.44;;;26.57;100.00
3102;BME280;1561;42.666;23.392;2023-06-22T05:45:10;95684.25;;;26.58;100.00
3102;BME280;1561;42.666;23.392;2023-06-22T05:47:36;95705.47;;;25.67;100.00
3102;BME280;1561;42.666;23.392;2023-06-22T05:50:04;95696.03;;;25.40;100.00
3102;BME280;1561;42.666;23.392;2023-06-22T05:52:33;95703.97;;;26.17;100.00
3102;BME280;1561;42.666;23.392;2023-06-22T05:55:02;95687.75;;;27.57;100.00
3102;BME280;1561;42.666;23.392;2023-06-22T05:57:30;95692.50;;;28.45;99.21
3102;BME280;1561;42.666;23.392;2023-06-22T06:00:00;95683.16;;;29.66;88.93
3102;BME280;1561;42.666;23.392;2023-06-22T06:02:31;95628.88;;;29.07;88.40
3102;BME280;1561;42.666;23.392;2023-06-22T06:05:01;95690.28;;;28.24;95.86
3102;BME280;1561;42.666;23.392;2023-06-22T06:07:28;95683.63;;;28.39;94.02
3102;BME280;1561;42.666;23.392;2023-06-22T06:10:00;95691.44;;;28.75;97.99
3102;BME280;1561;42.666;23.392;2023-06-22T06:12:27;95684.94;;;30.11;85.75
3102;BME280;1561;42.666;23.392;2023-06-22T06:14:56;95682.00;;;29.96;80.33
3102;BME280;1561;42.666;23.392;2023-06-22T06:17:24;95676.47;;;28.76;93.63
3102;BME280;1561;42.666;23.392;2023-06-22T06:19:52;95674.22;;;29.55;84.40
3102;BME280;1561;42.666;23.392;2023-06-22T06:22:24;95669.63;;;29.27;91.53
3102;BME280;1561;42.666;23.392;2023-06-22T06:24:52;95670.03;;;30.28;81.49
3102;BME280;1561;42.666;23.392;2023-06-22T06:27:19;95677.75;;;31.02;77.51
3102;BME280;1561;42.666;23.392;2023-06-22T06:29:47;95596.78;;;30.91;71.19
3102;BME280;1561;42.666;23.392;2023-06-22T06:32:14;95607.59;;;30.06;77.31
3102;BME280;1561;42.666;23.392;2023-06-22T06:34:43;95675.50;;;31.11;76.39
3102;BME280;1561;42.666;23.392;2023-06-22T06:37:09;95673.03;;;30.20;77.24
3102;BME280;1561;42.666;23.392;2023-06-22T06:39:36;95664.03;;;31.33;75.42
3102;BME280;1561;42.666;23.392;2023-06-22T06:42:05;95662.91;;;32.70;65.67
3102;BME280;1561;42.666;23.392;2023-06-22T06:44:37;95655.97;;;34.41;57.88
3102;BME280;1561;42.666;23.392;2023-06-22T06:47:05;95659.00;;;33.67;59.40
3102;BME280;1561;42.666;23.392;2023-06-22T06:49:33;95657.91;;;32.95;61.66
3102;BME280;1561;42.666;23.392;2023-06-22T06:52:11;95661.84;;;30.97;72.18
3102;BME280;1561;42.666;23.392;2023-06-22T06:54:38;95658.06;;;30.93;72.03
3102;BME280;1561;42.666;23.392;2023-06-22T06:57:09;95645.69;;;31.10;72.52
3102;BME280;1561;42.666;23.392;2023-06-22T06:59:39;95645.56;;;31.88;66.62
3102;BME280;1561;42.666;23.392;2023-06-22T07:02:07;95648.38;;;32.24;65.76
3102;BME280;1561;42.666;23.392;2023-06-22T07:04:38;95653.28;;;30.62;73.44
3102;BME280;1561;42.666;23.392;2023-06-22T07:07:07;95619.13;;;29.19;78.98
3102;BME280;1561;42.666;23.392;2023-06-22T07:09:36;95646.97;;;29.27;82.04
3102;BME280;1561;42.666;23.392;2023-06-22T07:12:08;95655.75;;;29.20;82.76
3102;BME280;1561;42.666;23.392;2023-06-22T07:14:35;95658.50;;;29.14;83.86
3102;BME280;1561;42.666;23.392;2023-06-22T07:17:04;95649.94;;;28.00;97.64
3102;BME280;1561;42.666;23.392;2023-06-22T07:19:34;95648.97;;;30.05;80.63
3102;BME280;1561;42.666;23.392;2023-06-22T07:22:27;95655.44;;;29.28;86.40
3102;BME280;1561;42.666;23.392;2023-06-22T07:24:54;95648.13;;;29.54;82.97
3102;BME280;1561;42.666;23.392;2023-06-22T07:27:27;95574.66;;;31.47;70.10
3102;BME280;1561;42.666;23.392;2023-06-22T07:30:11;95635.75;;;33.79;59.88
3102;BME280;1561;42.666;23.392;2023-06-22T07:32:41;95633.81;;;31.62;64.80
3102;BME280;1561;42.666;23.392;2023-06-22T07:35:14;95642.00;;;33.58;57.33
3102;BME280;1561;42.666;23.392;2023-06-22T07:37:44;95648.63;;;34.02;56.67
3102;BME280;1561;42.666;23.392;2023-06-22T07:40:15;95598.41;;;33.80;56.52
3102;BME280;1561;42.666;23.392;2023-06-22T07:42:45;95641.50;;;32.71;58.81
3102;BME280;1561;42.666;23.392;2023-06-22T07:45:18;95636.44;;;34.83;53.59
3102;BME280;1561;42.666;23.392;2023-06-22T07:47:46;95643.19;;;33.77;56.31
3102;BME280;1561;42.666;23.392;2023-06-22T07:50:17;95651.22;;;31.58;64.31
3102;BME280;1561;42.666;23.392;2023-06-22T07:52:46;95643.38;;;33.29;58.54
3102;BME280;1561;42.666;23.392;2023-06-22T07:55:15;95643.00;;;33.88;56.69
3102;BME280;1561;42.666;23.392;2023-06-22T07:57:46;95649.16;;;31.82;63.82
3102;BME280;1561;42.666;23.392;2023-06-22T08:00:18;95632.72;;;33.60;57.97
3102;BME280;1561;42.666;23.392;2023-06-22T08:02:46;95606.53;;;34.20;56.40
3102;BME280;1561;42.666;23.392;2023-06-22T08:05:15;95625.41;;;34.34;54.73
3102;BME280;1561;42.666;23.392;2023-06-22T08:07:45;95637.19;;;34.73;54.01
3102;BME280;1561;42.666;23.392;2023-06-22T08:10:14;95628.25;;;35.29;50.78
3102;BME280;1561;42.666;23.392;2023-06-22T08:12:41;95637.78;;;33.67;56.15
3102;BME280;1561;42.666;23.392;2023-06-22T08:15:10;95639.41;;;32.73;60.20
3102;BME280;1561;42.666;23.392;2023-06-22T08:17:41;95632.75;;;31.80;67.12
3102;BME280;1561;42.666;23.392;2023-06-22T08:20:09;95628.72;;;31.94;66.75
3102;BME280;1561;42.666;23.392;2023-06-22T08:22:40;95631.56;;;30.72;71.68
3102;BME280;1561;42.666;23.392;2023-06-22T08:25:10;95621.28;;;31.74;67.56
3102;BME280;1561;42.666;23.392;2023-06-22T08:27:38;95617.69;;;32.71;61.27
3102;BME280;1561;42.666;23.392;2023-06-22T08:30:06;95552.00;;;31.89;62.48
3102;BME280;1561;42.666;23.392;2023-06-22T08:32:36;95610.34;;;33.83;56.69
3102;BME280;1561;42.666;23.392;2023-06-22T08:35:05;95597.13;;;35.20;51.55
3102;BME280;1561;42.666;23.392;2023-06-22T08:37:34;95621.56;;;33.22;58.20
3102;BME280;1561;42.666;23.392;2023-06-22T08:40:05;95616.63;;;33.72;56.09
3102;BME280;1561;42.666;23.392;2023-06-22T08:42:37;95617.59;;;32.88;62.34
3102;BME280;1561;42.666;23.392;2023-06-22T08:45:05;95620.41;;;31.85;67.63
3102;BME280;1561;42.666;23.392;2023-06-22T08:47:32;95622.47;;;33.74;59.12
3102;BME280;1561;42.666;23.392;2023-06-22T08:50:01;95617.28;;;33.94;58.35
3102;BME280;1561;42.666;23.392;2023-06-22T08:52:29;95612.53;;;33.49;60.83
3102;BME280;1561;42.666;23.392;2023-06-22T08:54:58;95611.50;;;32.34;65.40
3102;BME280;1561;42.666;23.392;2023-06-22T08:57:28;95610.56;;;33.03;60.12
3102;BME280;1561;42.666;23.392;2023-06-22T08:59:57;95596.28;;;34.59;57.10
3102;BME280;1561;42.666;23.392;2023-06-22T09:02:25;95583.09;;;33.92;59.97
3102;BME280;1561;42.666;23.392;2023-06-22T09:04:56;95593.59;;;35.79;50.92
3102;BME280;1561;42.666;23.392;2023-06-22T09:07:24;95534.44;;;35.14;51.17
3102;BME280;1561;42.666;23.392;2023-06-22T09:09:51;95592.59;;;35.50;50.79
3102;BME280;1561;42.666;23.392;2023-06-22T09:12:24;95595.53;;;35.44;50.24
3102;BME280;1561;42.666;23.392;2023-06-22T09:14:52;95594.44;;;35.75;49.64
3102;BME280;1561;42.666;23.392;2023-06-22T09:17:23;95578.25;;;34.71;54.57
3102;BME280;1561;42.666;23.392;2023-06-22T09:19:52;95586.28;;;36.15;48.46
3102;BME280;1561;42.666;23.392;2023-06-22T09:22:23;95588.75;;;36.93;47.01
3102;BME280;1561;42.666;23.392;2023-06-22T09:24:57;95593.63;;;35.59;48.37
3102;BME280;1561;42.666;23.392;2023-06-22T09:27:28;95592.84;;;34.58;51.09
3102;BME280;1561;42.666;23.392;2023-06-22T09:29:57;95575.81;;;35.55;49.35
3102;BME280;1561;42.666;23.392;2023-06-22T09:32:26;95592.09;;;35.23;48.84
3102;BME280;1561;42.666;23.392;2023-06-22T09:34:53;95538.16;;;35.18;48.73
3102;BME280;1561;42.666;23.392;2023-06-22T09:37:22;95599.56;;;36.25;47.04
3102;BME280;1561;42.666;23.392;2023-06-22T09:39:52;95597.38;;;36.80;45.44
3102;BME280;1561;42.666;23.392;2023-06-22T09:42:26;95607.06;;;36.08;45.76
3102;BME280;1561;42.666;23.392;2023-06-22T09:44:53;95600.47;;;35.95;46.15
3102;BME280;1561;42.666;23.392;2023-06-22T09:47:20;95594.44;;;35.55;45.35
3102;BME280;1561;42.666;23.392;2023-06-22T09:49:49;95568.44;;;35.37;46.59
3102;BME280;1561;42.666;23.392;2023-06-22T09:52:16;95585.97;;;34.97;47.44
3102;BME280;1561;42.666;23.392;2023-06-22T09:54:43;95583.31;;;35.18;48.20
3102;BME280;1561;42.666;23.392;2023-06-22T09:57:16;95582.69;;;35.81;45.91
3102;BME280;1561;42.666;23.392;2023-06-22T09:59:44;95575.00;;;36.38;42.08
3102;BME280;1561;42.666;23.392;2023-06-22T10:02:11;95569.66;;;37.43;40.51
3102;BME280;1561;42.666;23.392;2023-06-22T10:04:39;95571.28;;;36.34;42.15
3102;BME280;1561;42.666;23.392;2023-06-22T10:07:09;95573.25;;;36.57;42.82
3102;BME280;1561;42.666;23.392;2023-06-22T10:09:58;95566.19;;;37.43;40.75
3102;BME280;1561;42.666;23.392;2023-06-22T10:12:26;95560.31;;;38.16;38.07
3102;BME280;1561;42.666;23.392;2023-06-22T10:14:58;95563.63;;;36.71;40.72
3102;BME280;1561;42.666;23.392;2023-06-22T10:17:28;95559.06;;;37.05;40.85
3102;BME280;1561;42.666;23.392;2023-06-22T10:19:56;95560.91;;;35.79;40.54
3102;BME280;1561;42.666;23.392;2023-06-22T10:22:49;95562.59;;;35.15;43.56
3102;BME280;1561;42.666;23.392;2023-06-22T10:25:23;95552.38;;;35.87;42.81
3102;BME280;1561;42.666;23.392;2023-06-22T10:27:52;95559.91;;;37.00;40.83
3102;BME280;1561;42.666;23.392;2023-06-22T10:30:20;95557.41;;;36.80;40.88
3102;BME280;1561;42.666;23.392;2023-06-22T10:32:50;95562.81;;;35.48;42.76
3102;BME280;1561;42.666;23.392;2023-06-22T10:35:18;95561.53;;;36.09;40.67
3102;BME280;1561;42.666;23.392;2023-06-22T10:37:48;95555.38;;;34.30;44.02
3102;BME280;1561;42.666;23.392;2023-06-22T10:40:17;95549.38;;;35.93;42.04
3102;BME280;1561;42.666;23.392;2023-06-22T10:42:46;95543.19;;;35.19;42.64
3102;BME280;1561;42.666;23.392;2023-06-22T10:45:15;95557.97;;;33.58;46.06
3102;BME280;1561;42.666;23.392;2023-06-22T10:47:42;95548.38;;;33.47;47.40
3102;BME280;1561;42.666;23.392;2023-06-22T10:50:11;95533.56;;;34.13;47.73
3102;BME280;1561;42.666;23.392;2023-06-22T10:52:39;95532.00;;;33.60;48.61
3102;BME280;1561;42.666;23.392;2023-06-22T10:55:11;95537.31;;;35.22;43.63
3102;BME280;1561;42.666;23.392;2023-06-22T10:57:38;95531.16;;;35.62;43.01
3102;BME280;1561;42.666;23.392;2023-06-22T11:00:10;95510.44;;;35.54;42.93
3102;BME280;1561;42.666;23.392;2023-06-22T11:02:39;95522.97;;;36.07;41.83
3102;BME280;1561;42.666;23.392;2023-06-22T11:05:34;95526.47;;;35.09;43.38
3102;BME280;1561;42.666;23.392;2023-06-22T11:08:05;95537.06;;;35.34;43.41
3102;BME280;1561;42.666;23.392;2023-06-22T11:10:39;95542.88;;;34.30;44.03
3102;BME280;1561;42.666;23.392;2023-06-22T11:13:14;95538.13;;;34.37;45.26
3102;BME280;1561;42.666;23.392;2023-06-22T11:15:44;95538.97;;;35.03;43.91
3102;BME280;1561;42.666;23.392;2023-06-22T11:18:24;95518.41;;;34.13;45.46
3102;BME280;1561;42.666;23.392;2023-06-22T11:21:08;95485.25;;;34.16;45.92
3102;BME280;1561;42.666;23.392;2023-06-22T11:23:41;95543.84;;;33.38;46.60
3102;BME280;1561;42.666;23.392;2023-06-22T11:26:13;95523.00;;;34.33;44.52
3102;BME280;1561;42.666;23.392;2023-06-22T11:28:50;95514.97;;;34.08;44.32
3102;BME280;1561;42.666;23.392;2023-06-22T11:31:31;95500.75;;;33.67;45.87
3102;BME280;1561;42.666;23.392;2023-06-22T11:34:00;95519.28;;;34.64;43.94
3102;BME280;1561;42.666;23.392;2023-06-22T11:36:30;95494.09;;;33.55;46.90
3102;BME280;1561;42.666;23.392;2023-06-22T11:39:35;95518.50;;;33.62;45.20
3102;BME280;1561;42.666;23.392;2023-06-22T11:42:30;95506.69;;;32.28;49.91
3102;BME280;1561;42.666;23.392;2023-06-22T11:44:58;95514.44;;;34.16;45.84
3102;BME280;1561;42.666;23.392;2023-06-22T11:47:36;95502.06;;;34.46;45.48
3102;BME280;1561;42.666;23.392;2023-06-22T11:50:04;95502.56;;;34.43;45.94
3102;BME280;1561;42.666;23.392;2023-06-22T11:52:38;95496.41;;;34.23;46.64
3102;BME280;1561;42.666;23.392;2023-06-22T11:55:08;95438.75;;;33.73;47.48
3102;BME280;1561;42.666;23.392;2023-06-22T11:57:55;95499.22;;;32.52;48.66
3102;BME280;1561;42.666;23.392;2023-06-22T12:00:29;95487.91;;;32.93;50.03
3102;BME280;1561;42.666;23.392;2023-06-22T12:02:59;95487.56;;;33.82;45.71
3102;BME280;1561;42.666;23.392;2023-06-22T12:05:28;95503.84;;;32.66;51.27
3102;BME280;1561;42.666;23.392;2023-06-22T12:08:04;95510.47;;;32.11;50.91
3102;BME280;1561;42.666;23.392;2023-06-22T12:10:36;95516.53;;;31.63;54.55
3102;BME280;1561;42.666;23.392;2023-06-22T12:13:42;95505.94;;;31.04;57.20
3102;BME280;1561;42.666;23.392;2023-06-22T12:16:19;95504.16;;;29.08;81.32
3102;BME280;1561;42.666;23.392;2023-06-22T12:18:53;95534.22;;;27.95;98.90
3102;BME280;1561;42.666;23.392;2023-06-22T12:21:35;95462.44;;;27.36;100.00
3102;BME280;1561;42.666;23.392;2023-06-22T12:24:28;95502.97;;;27.58;100.00
3102;BME280;1561;42.666;23.392;2023-06-22T12:26:59;95523.66;;;27.66;100.00
3102;BME280;1561;42.666;23.392;2023-06-22T12:29:32;95530.22;;;27.75;99.81
3102;BME280;1561;42.666;23.392;2023-06-22T12:32:08;95520.81;;;27.49;100.00
3102;BME280;1561;42.666;23.392;2023-06-22T12:34:47;95532.56;;;27.47;100.00
3102;BME280;1561;42.666;23.392;2023-06-22T12:37:15;95440.78;;;25.88;100.00
3102;BME280;1561;42.666;23.392;2023-06-22T12:39:46;95557.03;;;24.39;100.00
3102;BME280;1561;42.666;23.392;2023-06-22T12:42:23;95573.41;;;23.94;100.00
3102;BME280;1561;42.666;23.392;2023-06-22T12:44:59;95568.38;;;23.93;100.00
3102;BME280;1561;42.666;23.392;2023-06-22T12:47:29;95575.50;;;24.31;100.00
3102;BME280;1561;42.666;23.392;2023-06-22T12:50:03;95566.47;;;24.40;100.00
3102;BME280;1561;42.666;23.392;2023-06-22T12:52:36;95580.97;;;24.62;100.00
3102;BME280;1561;42.666;23.392;2023-06-22T12:55:07;95589.34;;;24.19;100.00
3102;BME280;1561;42.666;23.392;2023-06-22T12:57:46;95586.59;;;24.59;100.00
3102;BME280;1561;42.666;23.392;2023-06-22T13:00:16;95582.00;;;24.87;100.00
3102;BME280;1561;42.666;23.392;2023-06-22T13:02:43;95592.63;;;25.12;100.00
3102;BME280;1561;42.666;23.392;2023-06-22T13:05:12;95591.16;;;25.55;100.00
3102;BME280;1561;42.666;23.392;2023-06-22T13:07:43;95598.06;;;25.04;100.00
3102;BME280;1561;42.666;23.392;2023-06-22T13:10:14;95592.59;;;24.53;100.00
3102;BME280;1561;42.666;23.392;2023-06-22T13:12:42;95590.22;;;24.58;100.00
3102;BME280;1561;42.666;23.392;2023-06-22T13:15:22;95571.34;;;24.76;100.00
3102;BME280;1561;42.666;23.392;2023-06-22T13:17:50;95584.41;;;24.95;100.00
3102;BME280;1561;42.666;23.392;2023-06-22T13:20:34;95581.22;;;24.67;100.00
3102;BME280;1561;42.666;23.392;2023-06-22T13:23:06;95589.59;;;24.56;100.00
3102;BME280;1561;42.666;23.392;2023-06-22T13:25:41;95606.06;;;24.44;100.00